Time;durP1;ratioP1;P1;durP2;ratioP2;P2;SDS_P1;SDS_P2;PMS_P1;PMS_P2;Temp;Humidity;BMP_temperature;BMP_pressure;BME280_temperature;BME280_humidity;BME280_pressure;Samples;Min_cycle;Max_cycle;Signal;HPM_P1;HPM_P2
2021/12/04 00:01:47;;;;;;;0.77;0.40;;;3.60;99.90;;;;;;5096519;28;20488;-52
2021/12/04 00:04:22;;;;;;;0.80;0.40;;;3.60;99.90;;;;;;5095568;28;20450;-53
2021/12/04 00:06:52;;;;;;;0.40;0.30;;;3.60;99.90;;;;;;5094702;28;20855;-49
2021/12/04 00:09:21;;;;;;;0.50;0.30;;;3.60;99.90;;;;;;5094913;28;20769;-47
2021/12/04 00:11:54;;;;;;;0.90;0.30;;;3.60;99.90;;;;;;5094102;28;20464;-49
2021/12/04 00:14:21;;;;;;;0.70;0.33;;;3.60;99.90;;;;;;5095855;28;20428;-52
2021/12/04 00:16:48;;;;;;;1.70;0.40;;;3.70;99.90;;;;;;5095102;28;20910;-54
2021/12/04 00:19:15;;;;;;;0.73;0.47;;;3.70;99.90;;;;;;5096213;28;20503;-54
2021/12/04 00:21:53;;;;;;;0.73;0.30;;;3.70;99.90;;;;;;5095359;28;20488;-53
2021/12/04 00:24:20;;;;;;;0.60;0.40;;;3.70;99.90;;;;;;5095612;28;20424;-53
2021/12/04 00:26:49;;;;;;;0.80;0.30;;;3.80;99.90;;;;;;5096063;28;20893;-50
2021/12/04 00:29:16;;;;;;;0.43;0.30;;;3.70;99.90;;;;;;5095870;28;20477;-49
2021/12/04 00:31:47;;;;;;;0.67;0.37;;;3.70;99.90;;;;;;5095933;28;20452;-54
2021/12/04 00:34:14;;;;;;;0.70;0.30;;;3.70;99.90;;;;;;5094617;28;20450;-55
2021/12/04 00:36:56;;;;;;;0.40;0.30;;;3.70;99.90;;;;;;5095243;28;20441;-52
2021/12/04 00:50:22;;;;;;;0.60;0.40;;;3.80;99.90;;;;;;5095311;28;20446;-53
2021/12/04 00:56:12;;;;;;;0.47;0.27;;;3.90;99.90;;;;;;5095670;28;20522;-49
2021/12/04 00:58:39;;;;;;;0.50;0.30;;;3.90;99.90;;;;;;5095612;28;20477;-53
2021/12/04 01:01:06;;;;;;;0.57;0.30;;;3.90;99.90;;;;;;5095354;28;20584;-49
2021/12/04 01:06:58;;;;;;;0.60;0.40;;;3.90;99.90;;;;;;5095536;28;20868;-53
2021/12/04 01:09:29;;;;;;;1.30;0.40;;;3.90;99.90;;;;;;5095844;28;20427;-54
2021/12/04 01:11:59;;;;;;;0.80;0.40;;;4.00;99.90;;;;;;5095836;28;20509;-54
2021/12/04 01:14:28;;;;;;;3.10;0.40;;;3.90;99.90;;;;;;5095153;28;20427;-54
2021/12/04 01:16:56;;;;;;;0.80;0.30;;;3.90;99.90;;;;;;5094373;28;20445;-55
2021/12/04 01:19:32;;;;;;;0.60;0.30;;;3.90;99.90;;;;;;5095263;28;20420;-54
2021/12/04 01:22:00;;;;;;;0.80;0.50;;;3.90;99.90;;;;;;5094244;28;20485;-54
2021/12/04 01:24:30;;;;;;;0.50;0.40;;;3.90;99.90;;;;;;5093996;28;20424;-47
2021/12/04 01:27:00;;;;;;;0.60;0.40;;;3.90;99.90;;;;;;5094897;28;20458;-50
2021/12/04 01:29:32;;;;;;;0.60;0.40;;;4.00;99.90;;;;;;5095322;28;20446;-52
2021/12/04 01:32:00;;;;;;;0.67;0.30;;;4.00;99.90;;;;;;5095533;28;20453;-47
2021/12/04 01:34:27;;;;;;;0.70;0.40;;;3.90;99.90;;;;;;5095723;28;20755;-48
2021/12/04 01:36:54;;;;;;;0.67;0.40;;;3.90;99.90;;;;;;5095812;28;20485;-52
2021/12/04 01:39:25;;;;;;;0.70;0.40;;;3.90;99.90;;;;;;5095059;28;20449;-53
2021/12/04 01:41:52;;;;;;;0.60;0.30;;;3.90;99.90;;;;;;5093754;28;20463;-49
2021/12/04 01:44:21;;;;;;;0.50;0.27;;;3.80;99.90;;;;;;5094425;28;20457;-48
2021/12/04 01:46:55;;;;;;;0.30;0.10;;;3.70;99.90;;;;;;5096261;28;20416;-48
2021/12/04 01:49:23;;;;;;;0.90;0.40;;;3.70;99.90;;;;;;5097757;28;20485;-51
2021/12/04 01:51:51;;;;;;;0.90;0.43;;;3.60;99.90;;;;;;5097204;28;20473;-53
2021/12/04 01:54:18;;;;;;;0.60;0.30;;;3.60;99.90;;;;;;5097324;28;20428;-53
2021/12/04 01:56:46;;;;;;;1.27;0.37;;;3.60;99.90;;;;;;5096075;28;20420;-51
2021/12/04 01:59:14;;;;;;;1.17;0.40;;;3.50;99.90;;;;;;5095917;28;20458;-50
2021/12/04 02:01:43;;;;;;;0.67;0.40;;;3.50;99.90;;;;;;5096617;28;20462;-52
2021/12/04 02:04:10;;;;;;;0.60;0.27;;;3.40;99.90;;;;;;5096043;28;20459;-50
2021/12/04 02:06:38;;;;;;;3.87;0.40;;;3.40;99.90;;;;;;5096339;28;20416;-51
2021/12/04 02:09:08;;;;;;;0.50;0.30;;;3.40;99.90;;;;;;5097457;28;20457;-50
2021/12/04 02:11:36;;;;;;;0.60;0.40;;;3.30;99.90;;;;;;5098444;28;20599;-48
2021/12/04 02:14:03;;;;;;;0.93;0.30;;;3.30;99.90;;;;;;5098604;28;20873;-49
2021/12/04 02:16:31;;;;;;;0.80;0.30;;;3.20;99.90;;;;;;5098815;28;20511;-50
2021/12/04 02:19:00;;;;;;;0.40;0.30;;;3.10;99.90;;;;;;5098611;28;20460;-52
2021/12/04 02:21:31;;;;;;;0.60;0.30;;;3.10;99.90;;;;;;5098497;28;20481;-50
2021/12/04 02:23:58;;;;;;;2.93;0.50;;;3.10;99.90;;;;;;5098934;28;20428;-50
2021/12/04 02:26:26;;;;;;;1.00;0.40;;;3.10;99.90;;;;;;5098890;28;20514;-52
2021/12/04 02:28:55;;;;;;;0.60;0.40;;;3.20;99.90;;;;;;5098607;28;20741;-53
2021/12/04 02:31:25;;;;;;;0.60;0.40;;;3.20;99.90;;;;;;5098976;28;20413;-50
2021/12/04 02:33:53;;;;;;;1.23;0.50;;;3.10;99.90;;;;;;5097975;28;20552;-53
2021/12/04 02:36:20;;;;;;;0.70;0.40;;;3.10;99.90;;;;;;5097769;28;20428;-54
2021/12/04 02:38:51;;;;;;;0.40;0.23;;;3.00;99.90;;;;;;5097426;28;20431;-52
2021/12/04 02:41:19;;;;;;;0.90;0.40;;;3.00;99.90;;;;;;5097968;28;20493;-50
2021/12/04 02:43:47;;;;;;;0.83;0.27;;;3.00;99.90;;;;;;5097899;28;20449;-54
2021/12/04 02:46:16;;;;;;;0.70;0.37;;;3.00;99.90;;;;;;5097561;28;20416;-52
2021/12/04 02:48:43;;;;;;;0.60;0.30;;;3.00;99.90;;;;;;5097530;28;20432;-52
2021/12/04 02:51:11;;;;;;;0.80;0.33;;;2.90;99.90;;;;;;5097694;28;20441;-53
2021/12/04 02:53:39;;;;;;;1.00;0.50;;;3.00;99.90;;;;;;5097658;28;20460;-54
2021/12/04 02:56:08;;;;;;;0.93;0.30;;;3.00;99.90;;;;;;5097700;28;20449;-53
2021/12/04 02:58:35;;;;;;;1.63;0.60;;;3.00;99.90;;;;;;5097342;28;20453;-53
2021/12/04 03:01:04;;;;;;;1.73;0.40;;;2.90;99.90;;;;;;5097846;28;20474;-53
2021/12/04 03:03:32;;;;;;;0.43;0.20;;;2.90;99.90;;;;;;5097726;28;20442;-54
2021/12/04 03:06:00;;;;;;;0.53;0.40;;;3.00;99.90;;;;;;5097716;28;20442;-48
2021/12/04 03:08:30;;;;;;;1.30;0.50;;;3.00;99.90;;;;;;5097751;28;20464;-53
2021/12/04 03:10:58;;;;;;;2.63;0.40;;;3.00;99.90;;;;;;5097672;28;20832;-53
2021/12/04 03:13:30;;;;;;;1.23;0.50;;;3.00;99.90;;;;;;5097723;28;20438;-51
2021/12/04 03:16:02;;;;;;;0.90;0.50;;;3.00;99.90;;;;;;5097655;28;20441;-51
2021/12/04 03:18:29;;;;;;;0.77;0.50;;;3.00;99.90;;;;;;5096899;28;20540;-51
2021/12/04 03:20:58;;;;;;;1.40;0.33;;;3.00;99.90;;;;;;5097061;28;20420;-49
2021/12/04 03:23:30;;;;;;;1.57;0.60;;;3.00;99.90;;;;;;5097177;28;20432;-53
2021/12/04 03:26:04;;;;;;;0.43;0.30;;;3.00;99.90;;;;;;5097522;28;20449;-51
2021/12/04 03:28:33;;;;;;;0.60;0.30;;;3.00;99.90;;;;;;5097633;28;20428;-52
2021/12/04 03:31:06;;;;;;;0.90;0.60;;;3.00;99.90;;;;;;5097725;28;20420;-53
2021/12/04 03:41:47;;;;;;;0.30;0.20;;;3.00;99.90;;;;;;5095756;28;20943;-52
2021/12/04 03:44:16;;;;;;;2.27;0.60;;;3.00;99.90;;;;;;5097479;28;20453;-52
2021/12/04 03:46:46;;;;;;;0.70;0.30;;;3.00;99.90;;;;;;5096261;28;20450;-49
2021/12/04 03:49:14;;;;;;;0.90;0.43;;;3.10;99.90;;;;;;5096220;28;20432;-49
2021/12/04 03:51:42;;;;;;;0.90;0.50;;;3.00;99.90;;;;;;5095485;28;20416;-54
2021/12/04 03:54:09;;;;;;;0.90;0.50;;;3.10;99.90;;;;;;5096536;28;20859;-52
2021/12/04 03:56:40;;;;;;;0.97;0.30;;;3.10;99.90;;;;;;5096783;28;20420;-53
2021/12/04 03:59:07;;;;;;;0.60;0.30;;;3.10;99.90;;;;;;5096376;28;20467;-53
2021/12/04 04:01:36;;;;;;;0.40;0.20;;;3.10;99.90;;;;;;5096766;28;20899;-49
2021/12/04 04:04:04;;;;;;;1.07;0.50;;;3.20;99.90;;;;;;5097036;28;20454;-53
2021/12/04 04:06:33;;;;;;;1.20;0.30;;;3.20;99.90;;;;;;5096904;28;20420;-52
2021/12/04 04:09:03;;;;;;;0.90;0.50;;;3.30;99.90;;;;;;5096122;28;20421;-51
2021/12/04 04:11:35;;;;;;;0.60;0.30;;;3.20;99.90;;;;;;5096982;28;20468;-50
2021/12/04 04:14:03;;;;;;;0.50;0.37;;;3.20;99.90;;;;;;5095870;28;20865;-52
2021/12/04 04:16:38;;;;;;;0.50;0.37;;;3.20;99.90;;;;;;5095518;28;20457;-50
2021/12/04 04:19:07;;;;;;;0.70;0.30;;;3.20;99.90;;;;;;5095827;28;20736;-51
2021/12/04 04:21:39;;;;;;;0.70;0.50;;;3.20;99.90;;;;;;5095766;28;20477;-51
2021/12/04 04:24:08;;;;;;;2.10;0.40;;;3.20;99.90;;;;;;5096286;28;20483;-53
2021/12/04 04:26:36;;;;;;;0.50;0.40;;;3.30;99.90;;;;;;5096490;28;20459;-51
2021/12/04 04:29:07;;;;;;;0.80;0.20;;;3.30;99.90;;;;;;5096587;28;20895;-51
2021/12/04 04:31:46;;;;;;;0.70;0.40;;;3.30;99.90;;;;;;5096597;28;20424;-51
2021/12/04 04:34:19;;;;;;;1.30;0.30;;;3.30;99.90;;;;;;5096470;28;20428;-47
2021/12/04 04:36:59;;;;;;;0.60;0.40;;;3.40;99.90;;;;;;5096668;28;20446;-53
2021/12/04 04:39:55;;;;;;;0.30;0.13;;;3.40;99.90;;;;;;5096492;28;20471;-50
2021/12/04 04:59:04;;;;;;;0.83;0.30;;;3.70;99.90;;;;;;5095153;28;20433;-51
2021/12/04 05:12:27;;;;;;;2.30;0.73;;;3.50;99.90;;;;;;5086552;28;20396;-54
2021/12/04 05:14:57;;;;;;;2.20;1.00;;;3.50;99.90;;;;;;5095818;28;20709;-54
2021/12/04 05:17:31;;;;;;;1.30;0.80;;;3.50;99.90;;;;;;5095865;28;20536;-52
2021/12/04 05:20:00;;;;;;;1.57;0.87;;;3.40;99.90;;;;;;5095989;28;20463;-53
2021/12/04 05:22:28;;;;;;;2.30;0.87;;;3.50;99.90;;;;;;5098574;28;20451;-53
2021/12/04 05:24:55;;;;;;;2.20;1.00;;;3.40;99.90;;;;;;5100060;28;20459;-50
2021/12/04 05:27:23;;;;;;;2.23;0.90;;;3.40;99.90;;;;;;5100070;28;20416;-54
2021/12/04 05:29:50;;;;;;;1.23;0.97;;;3.40;99.90;;;;;;5099998;28;20532;-52
2021/12/04 05:32:18;;;;;;;1.30;0.80;;;3.40;99.90;;;;;;5099740;28;20444;-53
2021/12/04 05:34:45;;;;;;;1.10;0.80;;;3.40;99.90;;;;;;5099946;28;20427;-53
2021/12/04 05:37:14;;;;;;;2.60;0.90;;;3.40;99.90;;;;;;5099975;28;20528;-52
2021/12/04 05:39:44;;;;;;;3.87;0.90;;;3.40;99.90;;;;;;5099762;28;20864;-54
2021/12/04 05:42:12;;;;;;;2.40;0.80;;;3.50;99.90;;;;;;5099777;28;20462;-52
2021/12/04 05:44:41;;;;;;;1.70;0.90;;;3.50;99.90;;;;;;5099235;28;20892;-47
2021/12/04 05:47:15;;;;;;;2.20;0.77;;;3.50;99.90;;;;;;5099361;28;20574;-51
2021/12/04 05:49:52;;;;;;;3.37;0.80;;;3.50;99.90;;;;;;5099499;28;20836;-50
2021/12/04 05:52:34;;;;;;;2.27;0.97;;;3.50;99.90;;;;;;5098622;28;20426;-51
2021/12/04 05:55:15;;;;;;;2.53;1.10;;;3.60;99.90;;;;;;5099267;28;20436;-52
2021/12/04 05:57:44;;;;;;;1.40;0.73;;;3.70;99.90;;;;;;5099437;28;20441;-49
2021/12/04 06:00:15;;;;;;;2.30;0.90;;;3.70;99.90;;;;;;5099049;28;20456;-54
2021/12/04 06:02:45;;;;;;;2.23;1.00;;;3.70;99.90;;;;;;5098735;28;20450;-54
2021/12/04 06:05:17;;;;;;;1.77;0.70;;;3.70;99.90;;;;;;5098377;28;20954;-54
2021/12/04 06:07:46;;;;;;;1.30;0.80;;;3.70;99.90;;;;;;5098865;28;20511;-47
2021/12/04 06:10:20;;;;;;;2.70;0.83;;;3.70;99.90;;;;;;5098444;28;20452;-52
2021/12/04 06:12:47;;;;;;;1.70;0.80;;;3.70;99.90;;;;;;5098324;28;20476;-52
2021/12/04 06:15:17;;;;;;;1.87;0.70;;;3.70;99.90;;;;;;5097446;28;20449;-54
2021/12/04 06:17:44;;;;;;;2.97;0.80;;;3.80;99.90;;;;;;5097128;28;20511;-51
2021/12/04 06:23:02;;;;;;;0.80;0.50;;;4.10;99.90;;;;;;5097175;28;20497;-53
2021/12/04 06:25:29;;;;;;;6.00;0.80;;;4.70;99.90;;;;;;5097325;28;20442;-54
2021/12/04 06:27:57;;;;;;;1.20;0.60;;;4.90;99.90;;;;;;5097346;28;20721;-49
2021/12/04 06:30:27;;;;;;;1.00;0.50;;;5.00;99.90;;;;;;5098427;28;20433;-52
2021/12/04 06:32:58;;;;;;;0.70;0.40;;;4.80;99.90;;;;;;5097925;28;20442;-50
2021/12/04 06:35:27;;;;;;;0.63;0.30;;;4.80;99.90;;;;;;5098602;28;20772;-53
2021/12/04 06:37:55;;;;;;;0.43;0.20;;;4.80;99.90;;;;;;5098582;28;20920;-47
2021/12/04 06:40:27;;;;;;;0.90;0.20;;;4.80;99.90;;;;;;5098429;28;20449;-47
2021/12/04 06:42:56;;;;;;;0.50;0.27;;;4.70;99.90;;;;;;5098380;28;20503;-47
2021/12/04 06:45:24;;;;;;;0.20;0.10;;;4.70;99.90;;;;;;5098446;28;20445;-49
2021/12/04 06:47:55;;;;;;;0.50;0.10;;;4.80;99.90;;;;;;5097153;28;20441;-48
2021/12/04 06:50:33;;;;;;;0.40;0.10;;;4.80;99.90;;;;;;5097631;28;20507;-51
2021/12/04 06:53:11;;;;;;;0.30;0.10;;;4.90;99.90;;;;;;5098014;28;20488;-51
2021/12/04 06:55:43;;;;;;;0.30;0.10;;;5.00;99.90;;;;;;5098399;28;20506;-52
2021/12/04 06:58:11;;;;;;;0.20;0.10;;;5.00;99.90;;;;;;5097939;28;20445;-50
2021/12/04 07:00:38;;;;;;;0.20;0.10;;;5.00;99.90;;;;;;5097935;28;20448;-49
2021/12/04 07:03:06;;;;;;;0.30;0.10;;;5.10;99.90;;;;;;5097742;28;20478;-55
2021/12/04 07:05:37;;;;;;;0.30;0.10;;;5.10;99.90;;;;;;5098094;28;20748;-53
2021/12/04 07:08:05;;;;;;;0.30;0.10;;;5.10;99.90;;;;;;5108694;28;20886;-51
2021/12/04 07:10:35;;;;;;;0.30;0.10;;;5.20;99.90;;;;;;5118285;28;20959;-53
2021/12/04 07:13:05;;;;;;;0.30;0.13;;;5.30;99.90;;;;;;5115476;27;20433;-49
2021/12/04 07:15:33;;;;;;;0.30;0.10;;;5.30;99.90;;;;;;5117660;28;20462;-54
2021/12/04 07:18:04;;;;;;;0.30;0.10;;;5.40;99.90;;;;;;5116149;28;20774;-55
2021/12/04 07:20:32;;;;;;;0.60;0.10;;;5.40;99.90;;;;;;5114423;28;20444;-51
2021/12/04 07:23:00;;;;;;;0.30;0.10;;;5.40;99.90;;;;;;5116435;28;20487;-54
2021/12/04 07:25:28;;;;;;;0.20;0.10;;;5.40;99.90;;;;;;5116486;27;20743;-54
2021/12/04 07:27:56;;;;;;;0.70;0.10;;;5.50;99.90;;;;;;5116327;28;20453;-53
2021/12/04 07:30:30;;;;;;;0.30;0.10;;;5.50;99.90;;;;;;5109250;28;20441;-56
2021/12/04 07:33:00;;;;;;;3.50;0.10;;;5.50;99.90;;;;;;5095861;28;20441;-55
2021/12/04 07:35:28;;;;;;;0.30;0.10;;;5.60;99.90;;;;;;5096905;28;20861;-55
2021/12/04 07:37:57;;;;;;;0.40;0.10;;;5.60;99.90;;;;;;5097284;28;20448;-56
2021/12/04 07:40:25;;;;;;;0.20;0.00;;;5.60;99.90;;;;;;5096105;28;20467;-56
2021/12/04 07:42:52;;;;;;;0.20;0.10;;;5.60;99.90;;;;;;5095156;28;20507;-54
2021/12/04 07:45:22;;;;;;;0.30;0.10;;;5.60;99.90;;;;;;5093632;28;20584;-55
2021/12/04 07:47:51;;;;;;;0.20;0.10;;;5.60;99.90;;;;;;5093544;28;20729;-54
2021/12/04 07:50:29;;;;;;;0.30;0.10;;;5.60;99.90;;;;;;5093914;28;20564;-56
2021/12/04 07:52:59;;;;;;;0.20;0.10;;;5.60;99.90;;;;;;5111218;28;20440;-52
2021/12/04 07:55:27;;;;;;;0.30;0.10;;;5.60;99.90;;;;;;5113194;28;20436;-56
2021/12/04 07:57:55;;;;;;;5.50;0.10;;;5.60;99.90;;;;;;5112735;28;20544;-54
2021/12/04 08:00:24;;;;;;;0.70;0.60;;;5.60;99.90;;;;;;5114156;28;20480;-56
2021/12/04 08:03:01;;;;;;;0.40;0.10;;;5.60;99.90;;;;;;5115942;28;20950;-55
2021/12/04 08:05:29;;;;;;;0.30;0.10;;;5.60;99.90;;;;;;5116103;28;20441;-55
2021/12/04 08:07:57;;;;;;;0.57;0.10;;;5.70;99.90;;;;;;5116634;28;20456;-56
2021/12/04 08:10:28;;;;;;;1.20;0.10;;;5.70;99.90;;;;;;5132280;27;20501;-55
2021/12/04 08:12:58;;;;;;;0.30;0.10;;;5.70;99.90;;;;;;5136351;27;20748;-53
2021/12/04 08:15:25;;;;;;;0.40;0.20;;;5.70;99.90;;;;;;5136401;27;20440;-51
2021/12/04 08:17:54;;;;;;;0.30;0.10;;;5.80;99.90;;;;;;5133888;27;20778;-48
2021/12/04 08:20:25;;;;;;;0.30;0.10;;;5.80;99.90;;;;;;5137162;27;20630;-49
2021/12/04 08:22:56;;;;;;;0.20;0.10;;;5.80;99.90;;;;;;5136654;27;20480;-50
2021/12/04 08:25:25;;;;;;;0.37;0.10;;;5.80;99.90;;;;;;5135739;27;20800;-50
2021/12/04 08:27:53;;;;;;;0.30;0.10;;;5.90;99.90;;;;;;5134614;27;20448;-47
2021/12/04 08:30:23;;;;;;;0.30;0.10;;;5.90;99.90;;;;;;5134781;27;20458;-49
2021/12/04 08:32:53;;;;;;;0.60;0.30;;;5.90;99.90;;;;;;5134733;27;20439;-48
2021/12/04 08:35:25;;;;;;;0.60;0.27;;;5.90;99.90;;;;;;5136408;27;20874;-52
2021/12/04 08:37:54;;;;;;;0.47;0.23;;;5.90;99.90;;;;;;5135509;27;20455;-46
2021/12/04 08:40:22;;;;;;;0.30;0.20;;;5.90;99.90;;;;;;5136160;27;20538;-46
2021/12/04 08:42:49;;;;;;;0.30;0.10;;;6.00;99.90;;;;;;5135244;27;20788;-48
2021/12/04 08:45:18;;;;;;;0.30;0.10;;;6.00;99.90;;;;;;5135008;27;20455;-51
2021/12/04 08:47:46;;;;;;;0.20;0.10;;;6.00;99.90;;;;;;5131083;27;20770;-48
2021/12/04 08:50:16;;;;;;;0.20;0.10;;;6.10;99.90;;;;;;5135209;27;20553;-49
2021/12/04 08:52:46;;;;;;;0.37;0.10;;;6.10;99.90;;;;;;5135312;27;20862;-49
2021/12/04 08:55:15;;;;;;;0.30;0.10;;;6.10;99.90;;;;;;5133879;27;20543;-46
2021/12/04 08:57:45;;;;;;;0.30;0.13;;;6.10;99.90;;;;;;5134121;27;20526;-53
2021/12/04 09:00:22;;;;;;;0.30;0.10;;;6.20;99.90;;;;;;5133705;27;20501;-52
2021/12/04 09:02:50;;;;;;;0.30;0.10;;;6.30;99.90;;;;;;5133637;27;20475;-53
2021/12/04 09:05:18;;;;;;;0.30;0.10;;;6.30;99.90;;;;;;5132660;27;20535;-49
2021/12/04 09:07:48;;;;;;;0.37;0.20;;;6.40;99.90;;;;;;5133239;27;20448;-52
2021/12/04 09:10:16;;;;;;;0.40;0.17;;;6.40;99.90;;;;;;5132588;27;20490;-50
2021/12/04 09:12:45;;;;;;;0.30;0.20;;;6.40;99.90;;;;;;5135062;27;20450;-49
2021/12/04 09:15:15;;;;;;;0.40;0.10;;;6.50;99.90;;;;;;5134513;27;20926;-52
2021/12/04 09:17:43;;;;;;;0.40;0.20;;;6.50;99.90;;;;;;5135073;27;20534;-46
2021/12/04 09:20:16;;;;;;;0.33;0.10;;;6.60;99.90;;;;;;5135881;27;20458;-48
2021/12/04 09:22:44;;;;;;;0.30;0.10;;;6.70;99.90;;;;;;5136501;27;20440;-51
2021/12/04 09:25:21;;;;;;;0.30;0.10;;;6.80;99.90;;;;;;5135768;27;20487;-48
2021/12/04 09:28:16;;;;;;;0.40;0.10;;;6.90;99.90;;;;;;5136162;27;20493;-47
2021/12/04 09:34:07;;;;;;;0.40;0.20;;;6.90;99.90;;;;;;5135483;27;21561;-46
2021/12/04 10:01:53;;;;;;;0.60;0.30;;;7.30;99.90;;;;;;5133510;27;20435;-47
2021/12/04 10:24:52;;;;;;;0.40;0.30;;;7.70;99.90;;;;;;5126379;27;20547;-49
2021/12/04 10:33:14;;;;;;;0.30;0.13;;;8.10;99.90;;;;;;5137499;27;20407;-47
2021/12/04 10:35:42;;;;;;;1.80;0.10;;;8.10;99.90;;;;;;5135656;27;20455;-50
2021/12/04 10:38:18;;;;;;;0.33;0.20;;;8.20;99.90;;;;;;5114047;27;20542;-47
2021/12/04 10:40:57;;;;;;;0.40;0.20;;;8.20;99.90;;;;;;5136089;27;20447;-50
2021/12/04 10:43:31;;;;;;;0.30;0.20;;;8.40;99.90;;;;;;5126066;27;20607;-50
2021/12/04 10:46:01;;;;;;;0.70;0.20;;;8.50;99.90;;;;;;5136090;27;20460;-54
2021/12/04 10:48:37;;;;;;;1.17;0.50;;;8.70;99.90;;;;;;5137146;27;20544;-51
2021/12/04 10:51:22;;;;;;;0.50;0.20;;;8.70;99.90;;;;;;5133094;27;20451;-54
2021/12/04 10:53:54;;;;;;;0.30;0.10;;;8.80;99.90;;;;;;5126078;27;20897;-51
2021/12/04 10:56:48;;;;;;;0.40;0.20;;;8.80;99.90;;;;;;5136181;27;20452;-50
2021/12/04 10:59:35;;;;;;;1.00;0.20;;;8.90;99.90;;;;;;5136594;27;20870;-48
2021/12/04 11:02:16;;;;;;;0.43;0.20;;;9.00;99.90;;;;;;5136886;27;20462;-52
2021/12/04 11:04:54;;;;;;;0.30;0.10;;;9.00;99.90;;;;;;5117177;27;20530;-53
2021/12/04 11:18:58;;;;;;;0.73;0.10;;;9.10;99.90;;;;;;5113955;28;20415;-55
2021/12/04 11:21:45;;;;;;;0.40;0.20;;;9.00;99.90;;;;;;5112380;28;20528;-53
2021/12/04 11:27:30;;;;;;;0.50;0.10;;;9.10;99.90;;;;;;5125327;27;20951;-48
2021/12/04 11:38:24;;;;;;;0.30;0.20;;;9.30;99.90;;;;;;5119122;27;20943;-52
2021/12/04 11:43:50;;;;;;;0.40;0.20;;;9.30;99.90;;;;;;5115496;27;20452;-51
2021/12/04 11:46:21;;;;;;;0.30;0.10;;;9.30;99.90;;;;;;5135861;27;20735;-50
2021/12/04 11:48:50;;;;;;;0.40;0.20;;;9.30;99.90;;;;;;5137061;27;20514;-53
2021/12/04 11:51:23;;;;;;;0.40;0.10;;;9.30;99.90;;;;;;5132305;27;20620;-50
2021/12/04 11:53:56;;;;;;;0.40;0.20;;;9.30;99.90;;;;;;5133192;27;20436;-50
2021/12/04 11:56:34;;;;;;;0.30;0.20;;;9.40;99.90;;;;;;5114517;28;20523;-50
2021/12/04 11:59:02;;;;;;;0.53;0.10;;;9.50;99.90;;;;;;5129575;27;20447;-49
2021/12/04 12:01:35;;;;;;;0.30;0.10;;;9.50;99.90;;;;;;5135735;27;20497;-52
2021/12/04 12:04:08;;;;;;;0.30;0.10;;;9.50;99.90;;;;;;5133679;27;20922;-54
2021/12/04 12:06:50;;;;;;;0.30;0.10;;;9.50;99.90;;;;;;5078459;28;20508;-52
2021/12/04 12:09:36;;;;;;;0.30;0.10;;;9.60;99.90;;;;;;5132979;27;20446;-51
2021/12/04 12:12:13;;;;;;;0.47;0.20;;;9.60;99.90;;;;;;5147174;27;20731;-50
2021/12/04 12:14:49;;;;;;;0.30;0.10;;;9.70;99.90;;;;;;5113472;27;20424;-50
2021/12/04 12:17:36;;;;;;;0.50;0.30;;;9.70;99.90;;;;;;5133486;27;20458;-48
2021/12/04 12:20:23;;;;;;;1.47;0.20;;;9.80;99.90;;;;;;5134075;27;20538;-47
2021/12/04 12:23:04;;;;;;;0.33;0.20;;;9.80;99.90;;;;;;5143119;27;20443;-47
2021/12/04 12:26:26;;;;;;;0.30;0.10;;;9.70;99.90;;;;;;5148233;27;20483;-50
2021/12/04 12:37:37;;;;;;;0.50;0.20;;;9.70;99.90;;;;;;5130254;27;20418;-47
2021/12/04 12:43:26;;;;;;;0.30;0.10;;;9.70;99.90;;;;;;5124663;27;20871;-54
2021/12/04 12:46:09;;;;;;;0.53;0.10;;;9.60;99.90;;;;;;5129816;27;20456;-48
2021/12/04 12:48:54;;;;;;;0.30;0.20;;;9.70;99.90;;;;;;5128006;27;20449;-50
2021/12/04 12:51:39;;;;;;;2.20;0.10;;;9.70;99.90;;;;;;5112297;28;20892;-52
2021/12/04 12:54:35;;;;;;;0.33;0.10;;;9.70;99.90;;;;;;5105976;28;20785;-50
2021/12/04 12:57:21;;;;;;;0.60;0.10;;;9.70;99.90;;;;;;5133407;27;20926;-51
2021/12/04 13:12:06;;;;;;;0.30;0.10;;;9.50;99.90;;;;;;5113051;28;20792;-56
2021/12/04 13:15:14;;;;;;;0.30;0.10;;;9.50;99.90;;;;;;5115524;28;20500;-54
2021/12/04 13:17:51;;;;;;;2.40;0.70;;;9.50;99.90;;;;;;5109407;28;20868;-55
2021/12/04 13:20:28;;;;;;;3.80;1.83;;;9.50;99.90;;;;;;5112374;28;20450;-50
2021/12/04 13:23:00;;;;;;;0.50;0.20;;;9.50;99.90;;;;;;5111435;28;20455;-52
2021/12/04 13:25:34;;;;;;;0.40;0.10;;;9.50;99.90;;;;;;5092757;28;20491;-54
2021/12/04 13:33:40;;;;;;;0.37;0.10;;;9.50;99.90;;;;;;5112797;28;20441;-56
2021/12/04 13:36:19;;;;;;;5.67;3.33;;;9.50;99.90;;;;;;5112217;28;20491;-56
2021/12/04 13:39:03;;;;;;;0.30;0.10;;;9.50;99.90;;;;;;5112364;28;20835;-55
2021/12/04 13:42:01;;;;;;;0.30;0.10;;;9.50;99.90;;;;;;5111365;28;20786;-52
2021/12/04 13:44:41;;;;;;;0.30;0.10;;;9.50;99.90;;;;;;5117956;28;20476;-55
2021/12/04 13:47:18;;;;;;;0.40;0.17;;;9.50;99.90;;;;;;5118060;28;20550;-55
2021/12/04 13:50:00;;;;;;;0.30;0.10;;;9.50;99.90;;;;;;5117992;28;20507;-54
2021/12/04 13:52:36;;;;;;;2.10;0.20;;;9.40;99.90;;;;;;5117352;28;20436;-56
2021/12/04 13:55:14;;;;;;;0.40;0.20;;;9.40;99.90;;;;;;5117132;28;20435;-55
2021/12/04 13:57:42;;;;;;;0.30;0.10;;;9.40;99.90;;;;;;5121582;27;20520;-54
2021/12/04 14:03:04;;;;;;;0.30;0.13;;;9.30;99.90;;;;;;5117086;27;20546;-54
2021/12/04 14:05:39;;;;;;;0.37;0.20;;;9.20;99.90;;;;;;5135782;27;20622;-55
2021/12/04 14:08:10;;;;;;;0.30;0.13;;;9.10;99.90;;;;;;5129847;27;20780;-53
2021/12/04 14:10:44;;;;;;;0.40;0.20;;;9.10;99.90;;;;;;5135875;27;20462;-56
2021/12/04 14:13:19;;;;;;;0.43;0.20;;;9.00;99.90;;;;;;5135223;27;20468;-56
2021/12/04 14:16:02;;;;;;;0.67;0.30;;;9.00;99.90;;;;;;5133954;27;20486;-53
2021/12/04 14:18:30;;;;;;;0.40;0.20;;;9.00;99.90;;;;;;5137699;27;20504;-57
2021/12/04 14:23:48;;;;;;;0.60;0.20;;;8.90;99.90;;;;;;5136131;27;20927;-56
2021/12/04 14:26:30;;;;;;;0.30;0.10;;;8.90;99.90;;;;;;5136391;27;20448;-56
2021/12/04 14:29:02;;;;;;;0.30;0.20;;;8.80;99.90;;;;;;5146581;27;20829;-56
2021/12/04 14:31:35;;;;;;;0.30;0.10;;;8.80;99.90;;;;;;5113302;28;20601;-56
2021/12/04 14:34:13;;;;;;;0.33;0.17;;;8.80;99.90;;;;;;5115275;28;20452;-56
2021/12/04 14:36:42;;;;;;;0.63;0.20;;;8.80;99.90;;;;;;5115527;28;20444;-55
2021/12/04 14:39:23;;;;;;;0.50;0.20;;;8.80;99.90;;;;;;5115598;28;20480;-56
2021/12/04 14:42:11;;;;;;;0.30;0.10;;;8.80;99.90;;;;;;5116184;28;20444;-54
2021/12/04 14:44:46;;;;;;;0.30;0.20;;;8.80;99.90;;;;;;5115273;28;20484;-54
2021/12/04 14:47:24;;;;;;;0.40;0.20;;;8.80;99.90;;;;;;5115052;28;20508;-56
2021/12/04 14:52:42;;;;;;;0.47;0.20;;;8.80;99.90;;;;;;5112266;28;20441;-55
2021/12/04 14:55:23;;;;;;;0.50;0.23;;;8.80;99.90;;;;;;5116306;28;20441;-55
2021/12/04 14:57:55;;;;;;;0.50;0.20;;;8.70;99.90;;;;;;5116036;28;20770;-52
2021/12/04 15:00:36;;;;;;;0.60;0.20;;;8.70;99.90;;;;;;5114183;28;20469;-54
2021/12/04 15:03:12;;;;;;;0.40;0.20;;;8.70;99.90;;;;;;5115276;28;20440;-55
2021/12/04 15:05:44;;;;;;;0.40;0.20;;;8.70;99.90;;;;;;5116153;27;20994;-55
2021/12/04 15:08:26;;;;;;;0.70;0.20;;;8.80;99.90;;;;;;5134647;27;20488;-57
2021/12/04 15:11:04;;;;;;;0.40;0.20;;;8.70;99.90;;;;;;5157431;27;20478;-57
2021/12/04 15:13:35;;;;;;;1.30;0.67;;;8.70;99.90;;;;;;5156520;27;20443;-55
2021/12/04 15:16:08;;;;;;;0.60;0.30;;;8.70;99.90;;;;;;5158217;27;20443;-56
2021/12/04 15:18:38;;;;;;;0.70;0.30;;;8.70;99.90;;;;;;5156626;27;20479;-57
2021/12/04 15:21:17;;;;;;;0.50;0.20;;;8.60;99.90;;;;;;5155334;27;20455;-57
2021/12/04 15:23:56;;;;;;;0.37;0.20;;;8.60;99.90;;;;;;5145722;27;20444;-58
2021/12/04 15:26:33;;;;;;;0.60;0.20;;;8.70;99.90;;;;;;5135010;27;20788;-60
2021/12/04 15:29:01;;;;;;;0.40;0.20;;;8.70;99.90;;;;;;5135170;27;20448;-60
2021/12/04 15:31:33;;;;;;;0.40;0.20;;;8.70;99.90;;;;;;5136856;27;20455;-60
2021/12/04 15:34:04;;;;;;;0.40;0.10;;;8.70;99.90;;;;;;5133834;27;20468;-60
2021/12/04 15:36:44;;;;;;;0.90;0.30;;;8.60;99.90;;;;;;5133826;27;20459;-59
2021/12/04 15:39:29;;;;;;;0.50;0.20;;;8.60;99.90;;;;;;5127959;27;20439;-60
2021/12/04 15:42:18;;;;;;;0.50;0.20;;;8.60;99.90;;;;;;5133408;27;20458;-60
2021/12/04 15:45:00;;;;;;;0.40;0.20;;;8.60;99.90;;;;;;5132316;27;20997;-60
2021/12/04 15:48:08;;;;;;;0.90;0.30;;;8.60;99.90;;;;;;5130376;27;20450;-60
2021/12/04 15:50:55;;;;;;;0.60;0.30;;;8.70;99.90;;;;;;5132078;27;20461;-60
2021/12/04 15:53:38;;;;;;;0.37;0.20;;;8.80;99.90;;;;;;5133362;27;20756;-60
2021/12/04 15:56:10;;;;;;;0.50;0.20;;;8.80;99.90;;;;;;5134309;27;20450;-61
2021/12/04 15:58:39;;;;;;;2.10;0.40;;;8.80;99.90;;;;;;5133928;27;20455;-63
2021/12/04 16:01:13;;;;;;;5.00;1.20;;;8.90;99.90;;;;;;5133460;27;20463;-62
2021/12/04 16:03:48;;;;;;;4.83;1.47;;;9.00;99.90;;;;;;5133705;27;20550;-62
2021/12/04 16:06:22;;;;;;;1.57;0.80;;;9.00;99.90;;;;;;5115935;27;20478;-62
2021/12/04 16:08:56;;;;;;;0.80;0.50;;;9.00;99.90;;;;;;5133107;27;20710;-64
2021/12/04 16:11:35;;;;;;;1.23;0.20;;;9.10;99.90;;;;;;5132657;27;20447;-59
2021/12/04 16:14:09;;;;;;;0.30;0.20;;;9.20;99.90;;;;;;5134555;27;20467;-60
2021/12/04 16:16:41;;;;;;;1.67;0.40;;;9.20;99.90;;;;;;5134126;27;20485;-60
2021/12/04 16:19:10;;;;;;;0.50;0.30;;;9.20;99.90;;;;;;5135318;27;20512;-60
2021/12/04 16:21:42;;;;;;;0.40;0.20;;;9.20;99.90;;;;;;5135878;27;20435;-59